sensor_id;sensor_type;location;lat;lon;timestamp;P1;durP1;ratioP1;P2;durP2;ratioP2
43835;SDS011;39345;43.964;25.340;2023-06-26T00:01:35;18.42;;;8.15;;
43835;SDS011;39345;43.964;25.340;2023-06-26T00:04:03;18.80;;;8.32;;
43835;SDS011;39345;43.964;25.340;2023-06-26T00:06:30;25.17;;;9.23;;
43835;SDS011;39345;43.964;25.340;2023-06-26T00:08:58;15.73;;;8.77;;
43835;SDS011;39345;43.964;25.340;2023-06-26T00:11:25;17.05;;;8.48;;
43835;SDS011;39345;43.964;25.340;2023-06-26T00:13:54;16.58;;;8.25;;
43835;SDS011;39345;43.964;25.340;2023-06-26T00:16:21;18.10;;;9.23;;
43835;SDS011;39345;43.964;25.340;2023-06-26T00:18:49;19.05;;;8.30;;
43835;SDS011;39345;43.964;25.340;2023-06-26T00:21:16;16.75;;;8.02;;
43835;SDS011;39345;43.964;25.340;2023-06-26T00:23:45;18.33;;;8.60;;
43835;SDS011;39345;43.964;25.340;2023-06-26T00:26:13;21.95;;;8.55;;
43835;SDS011;39345;43.964;25.340;2023-06-26T00:28:40;25.42;;;9.07;;
43835;SDS011;39345;43.964;25.340;2023-06-26T00:31:08;21.23;;;9.32;;
43835;SDS011;39345;43.964;25.340;2023-06-26T00:33:35;25.75;;;9.75;;
43835;SDS011;39345;43.964;25.340;2023-06-26T00:36:03;21.85;;;8.63;;
43835;SDS011;39345;43.964;25.340;2023-06-26T00:38:30;25.05;;;8.73;;
43835;SDS011;39345;43.964;25.340;2023-06-26T00:40:58;21.20;;;8.80;;
43835;SDS011;39345;43.964;25.340;2023-06-26T00:43:25;20.67;;;8.85;;
43835;SDS011;39345;43.964;25.340;2023-06-26T00:45:53;15.43;;;8.20;;
43835;SDS011;39345;43.964;25.340;2023-06-26T00:48:20;24.25;;;9.15;;
43835;SDS011;39345;43.964;25.340;2023-06-26T00:50:49;21.27;;;8.63;;
43835;SDS011;39345;43.964;25.340;2023-06-26T00:53:17;18.58;;;8.38;;
43835;SDS011;39345;43.964;25.340;2023-06-26T00:55:49;22.13;;;9.05;;
43835;SDS011;39345;43.964;25.340;2023-06-26T00:58:16;24.58;;;9.32;;
43835;SDS011;39345;43.964;25.340;2023-06-26T01:00:44;18.27;;;8.55;;
43835;SDS011;39345;43.964;25.340;2023-06-26T01:03:12;22.38;;;8.50;;
43835;SDS011;39345;43.964;25.340;2023-06-26T01:05:39;26.50;;;8.90;;
43835;SDS011;39345;43.964;25.340;2023-06-26T01:08:07;20.48;;;8.73;;
43835;SDS011;39345;43.964;25.340;2023-06-26T01:10:35;23.95;;;9.27;;
43835;SDS011;39345;43.964;25.340;2023-06-26T01:13:03;21.70;;;8.93;;
43835;SDS011;39345;43.964;25.340;2023-06-26T01:15:31;20.17;;;8.27;;
43835;SDS011;39345;43.964;25.340;2023-06-26T01:17:58;20.08;;;8.05;;
43835;SDS011;39345;43.964;25.340;2023-06-26T01:20:36;13.70;;;7.82;;
43835;SDS011;39345;43.964;25.340;2023-06-26T01:28:16;19.25;;;9.02;;
43835;SDS011;39345;43.964;25.340;2023-06-26T01:30:44;17.70;;;8.00;;
43835;SDS011;39345;43.964;25.340;2023-06-26T01:33:12;17.48;;;8.52;;
43835;SDS011;39345;43.964;25.340;2023-06-26T01:35:40;17.77;;;8.20;;
43835;SDS011;39345;43.964;25.340;2023-06-26T01:38:15;22.75;;;8.43;;
43835;SDS011;39345;43.964;25.340;2023-06-26T01:40:43;19.73;;;8.00;;
43835;SDS011;39345;43.964;25.340;2023-06-26T01:43:18;21.35;;;8.80;;
43835;SDS011;39345;43.964;25.340;2023-06-26T01:45:47;19.23;;;8.60;;
43835;SDS011;39345;43.964;25.340;2023-06-26T01:48:15;25.40;;;9.43;;
43835;SDS011;39345;43.964;25.340;2023-06-26T01:50:44;29.15;;;9.82;;
43835;SDS011;39345;43.964;25.340;2023-06-26T01:53:12;22.70;;;8.77;;
43835;SDS011;39345;43.964;25.340;2023-06-26T01:55:43;23.85;;;9.35;;
43835;SDS011;39345;43.964;25.340;2023-06-26T01:58:15;19.00;;;8.55;;
43835;SDS011;39345;43.964;25.340;2023-06-26T02:00:43;33.70;;;9.70;;
43835;SDS011;39345;43.964;25.340;2023-06-26T02:03:11;27.85;;;9.48;;
43835;SDS011;39345;43.964;25.340;2023-06-26T02:05:38;23.45;;;9.43;;
43835;SDS011;39345;43.964;25.340;2023-06-26T02:08:08;16.30;;;8.88;;
43835;SDS011;39345;43.964;25.340;2023-06-26T02:10:36;24.17;;;10.20;;
43835;SDS011;39345;43.964;25.340;2023-06-26T02:13:04;20.88;;;9.43;;
43835;SDS011;39345;43.964;25.340;2023-06-26T02:15:31;23.08;;;9.73;;
43835;SDS011;39345;43.964;25.340;2023-06-26T02:18:00;22.15;;;9.60;;
43835;SDS011;39345;43.964;25.340;2023-06-26T02:20:27;18.80;;;9.23;;
43835;SDS011;39345;43.964;25.340;2023-06-26T02:22:55;17.05;;;9.30;;
43835;SDS011;39345;43.964;25.340;2023-06-26T02:25:23;18.50;;;9.07;;
43835;SDS011;39345;43.964;25.340;2023-06-26T02:27:51;19.77;;;8.05;;
43835;SDS011;39345;43.964;25.340;2023-06-26T02:30:18;19.63;;;8.52;;
43835;SDS011;39345;43.964;25.340;2023-06-26T02:32:46;17.95;;;8.30;;
43835;SDS011;39345;43.964;25.340;2023-06-26T02:35:13;25.15;;;9.40;;
43835;SDS011;39345;43.964;25.340;2023-06-26T02:37:41;20.70;;;8.32;;
43835;SDS011;39345;43.964;25.340;2023-06-26T02:40:09;16.08;;;8.48;;
43835;SDS011;39345;43.964;25.340;2023-06-26T02:42:38;18.35;;;8.85;;
43835;SDS011;39345;43.964;25.340;2023-06-26T02:45:06;21.25;;;8.20;;
43835;SDS011;39345;43.964;25.340;2023-06-26T02:47:34;17.90;;;9.23;;
43835;SDS011;39345;43.964;25.340;2023-06-26T02:50:03;16.92;;;8.18;;
43835;SDS011;39345;43.964;25.340;2023-06-26T02:52:44;16.00;;;7.60;;
43835;SDS011;39345;43.964;25.340;2023-06-26T02:55:14;17.85;;;8.05;;
43835;SDS011;39345;43.964;25.340;2023-06-26T02:57:42;20.45;;;9.18;;
43835;SDS011;39345;43.964;25.340;2023-06-26T03:00:09;16.85;;;7.97;;
43835;SDS011;39345;43.964;25.340;2023-06-26T03:02:44;19.40;;;8.25;;
43835;SDS011;39345;43.964;25.340;2023-06-26T03:05:15;21.30;;;8.18;;
43835;SDS011;39345;43.964;25.340;2023-06-26T03:07:43;18.65;;;8.00;;
43835;SDS011;39345;43.964;25.340;2023-06-26T03:10:10;18.33;;;7.63;;
43835;SDS011;39345;43.964;25.340;2023-06-26T03:12:38;18.85;;;8.55;;
43835;SDS011;39345;43.964;25.340;2023-06-26T03:15:05;16.83;;;7.50;;
43835;SDS011;39345;43.964;25.340;2023-06-26T03:17:33;18.00;;;8.05;;
43835;SDS011;39345;43.964;25.340;2023-06-26T03:20:05;16.92;;;8.00;;
43835;SDS011;39345;43.964;25.340;2023-06-26T03:22:41;23.48;;;8.57;;
43835;SDS011;39345;43.964;25.340;2023-06-26T03:25:10;17.67;;;8.35;;
43835;SDS011;39345;43.964;25.340;2023-06-26T03:27:37;17.75;;;8.63;;
43835;SDS011;39345;43.964;25.340;2023-06-26T03:30:06;18.63;;;8.00;;
43835;SDS011;39345;43.964;25.340;2023-06-26T03:32:36;13.45;;;7.60;;
43835;SDS011;39345;43.964;25.340;2023-06-26T03:35:05;16.73;;;8.10;;
43835;SDS011;39345;43.964;25.340;2023-06-26T03:37:33;22.92;;;8.43;;
43835;SDS011;39345;43.964;25.340;2023-06-26T03:40:01;17.48;;;8.27;;
43835;SDS011;39345;43.964;25.340;2023-06-26T03:42:31;16.13;;;8.88;;
43835;SDS011;39345;43.964;25.340;2023-06-26T03:44:59;16.05;;;8.48;;
43835;SDS011;39345;43.964;25.340;2023-06-26T03:47:28;14.30;;;8.25;;
43835;SDS011;39345;43.964;25.340;2023-06-26T03:49:55;20.73;;;8.90;;
43835;SDS011;39345;43.964;25.340;2023-06-26T03:52:24;15.90;;;8.15;;
43835;SDS011;39345;43.964;25.340;2023-06-26T03:54:51;17.85;;;7.38;;
43835;SDS011;39345;43.964;25.340;2023-06-26T03:57:19;15.18;;;8.50;;
43835;SDS011;39345;43.964;25.340;2023-06-26T03:59:47;16.83;;;8.40;;
43835;SDS011;39345;43.964;25.340;2023-06-26T04:02:14;17.15;;;8.52;;
43835;SDS011;39345;43.964;25.340;2023-06-26T04:04:42;17.70;;;8.02;;
43835;SDS011;39345;43.964;25.340;2023-06-26T04:07:10;15.77;;;8.30;;
43835;SDS011;39345;43.964;25.340;2023-06-26T04:09:38;21.00;;;8.63;;
43835;SDS011;39345;43.964;25.340;2023-06-26T04:12:06;18.48;;;8.00;;
43835;SDS011;39345;43.964;25.340;2023-06-26T04:14:33;25.10;;;8.15;;
43835;SDS011;39345;43.964;25.340;2023-06-26T04:17:01;15.48;;;8.32;;
43835;SDS011;39345;43.964;25.340;2023-06-26T04:19:29;16.80;;;8.07;;
43835;SDS011;39345;43.964;25.340;2023-06-26T04:21:57;14.63;;;8.60;;
43835;SDS011;39345;43.964;25.340;2023-06-26T04:24:24;18.50;;;8.05;;
43835;SDS011;39345;43.964;25.340;2023-06-26T04:26:52;15.80;;;7.80;;
43835;SDS011;39345;43.964;25.340;2023-06-26T04:29:25;15.48;;;7.95;;
43835;SDS011;39345;43.964;25.340;2023-06-26T04:31:53;19.17;;;7.68;;
43835;SDS011;39345;43.964;25.340;2023-06-26T04:34:25;18.20;;;7.85;;
43835;SDS011;39345;43.964;25.340;2023-06-26T04:36:55;18.42;;;7.78;;
43835;SDS011;39345;43.964;25.340;2023-06-26T04:39:23;18.52;;;8.02;;
43835;SDS011;39345;43.964;25.340;2023-06-26T04:41:50;18.00;;;8.30;;
43835;SDS011;39345;43.964;25.340;2023-06-26T04:44:19;22.90;;;8.13;;
43835;SDS011;39345;43.964;25.340;2023-06-26T04:46:47;18.33;;;7.85;;
43835;SDS011;39345;43.964;25.340;2023-06-26T04:49:18;17.50;;;7.35;;
43835;SDS011;39345;43.964;25.340;2023-06-26T04:51:46;23.52;;;7.50;;
43835;SDS011;39345;43.964;25.340;2023-06-26T04:54:15;15.50;;;7.32;;
43835;SDS011;39345;43.964;25.340;2023-06-26T04:56:42;20.00;;;7.72;;
43835;SDS011;39345;43.964;25.340;2023-06-26T04:59:10;18.95;;;7.78;;
43835;SDS011;39345;43.964;25.340;2023-06-26T05:01:39;21.05;;;7.45;;
43835;SDS011;39345;43.964;25.340;2023-06-26T05:04:07;22.27;;;7.47;;
43835;SDS011;39345;43.964;25.340;2023-06-26T05:06:35;21.25;;;8.63;;
43835;SDS011;39345;43.964;25.340;2023-06-26T05:09:03;19.65;;;7.63;;
43835;SDS011;39345;43.964;25.340;2023-06-26T05:11:30;16.95;;;8.57;;
43835;SDS011;39345;43.964;25.340;2023-06-26T05:13:57;20.98;;;8.40;;
43835;SDS011;39345;43.964;25.340;2023-06-26T05:16:25;22.38;;;10.98;;
43835;SDS011;39345;43.964;25.340;2023-06-26T05:18:53;22.73;;;8.95;;
43835;SDS011;39345;43.964;25.340;2023-06-26T05:21:21;24.45;;;9.23;;
43835;SDS011;39345;43.964;25.340;2023-06-26T05:23:48;22.85;;;8.30;;
43835;SDS011;39345;43.964;25.340;2023-06-26T05:26:16;25.45;;;8.82;;
43835;SDS011;39345;43.964;25.340;2023-06-26T05:28:44;26.75;;;8.52;;
43835;SDS011;39345;43.964;25.340;2023-06-26T05:31:15;22.65;;;7.80;;
43835;SDS011;39345;43.964;25.340;2023-06-26T05:33:43;24.85;;;9.07;;
43835;SDS011;39345;43.964;25.340;2023-06-26T05:36:12;20.10;;;7.82;;
43835;SDS011;39345;43.964;25.340;2023-06-26T05:38:40;29.75;;;8.32;;
43835;SDS011;39345;43.964;25.340;2023-06-26T05:41:08;24.02;;;8.15;;
43835;SDS011;39345;43.964;25.340;2023-06-26T05:43:35;26.70;;;8.60;;
43835;SDS011;39345;43.964;25.340;2023-06-26T05:46:03;31.42;;;10.50;;
43835;SDS011;39345;43.964;25.340;2023-06-26T05:48:30;20.90;;;8.13;;
43835;SDS011;39345;43.964;25.340;2023-06-26T05:50:58;25.15;;;8.25;;
43835;SDS011;39345;43.964;25.340;2023-06-26T05:53:26;20.40;;;7.82;;
43835;SDS011;39345;43.964;25.340;2023-06-26T05:55:53;23.58;;;7.43;;
43835;SDS011;39345;43.964;25.340;2023-06-26T05:58:21;24.30;;;8.48;;
43835;SDS011;39345;43.964;25.340;2023-06-26T06:00:50;25.42;;;7.68;;
43835;SDS011;39345;43.964;25.340;2023-06-26T06:03:18;19.42;;;6.65;;
43835;SDS011;39345;43.964;25.340;2023-06-26T06:05:46;14.98;;;6.60;;
43835;SDS011;39345;43.964;25.340;2023-06-26T06:08:13;14.65;;;6.25;;
43835;SDS011;39345;43.964;25.340;2023-06-26T06:10:40;20.40;;;7.38;;
43835;SDS011;39345;43.964;25.340;2023-06-26T06:13:08;15.90;;;7.60;;
43835;SDS011;39345;43.964;25.340;2023-06-26T06:15:36;21.15;;;7.40;;
43835;SDS011;39345;43.964;25.340;2023-06-26T06:18:03;16.45;;;6.90;;
43835;SDS011;39345;43.964;25.340;2023-06-26T06:20:31;18.73;;;7.65;;
43835;SDS011;39345;43.964;25.340;2023-06-26T06:22:59;21.38;;;6.80;;
43835;SDS011;39345;43.964;25.340;2023-06-26T06:25:26;15.43;;;6.60;;
43835;SDS011;39345;43.964;25.340;2023-06-26T06:27:53;16.48;;;7.10;;
43835;SDS011;39345;43.964;25.340;2023-06-26T06:30:21;10.35;;;6.68;;
43835;SDS011;39345;43.964;25.340;2023-06-26T06:33:08;11.05;;;5.70;;
43835;SDS011;39345;43.964;25.340;2023-06-26T06:35:36;27.90;;;16.77;;
43835;SDS011;39345;43.964;25.340;2023-06-26T06:38:04;14.75;;;6.35;;
43835;SDS011;39345;43.964;25.340;2023-06-26T06:40:32;10.98;;;5.50;;
43835;SDS011;39345;43.964;25.340;2023-06-26T06:43:00;10.20;;;4.70;;
43835;SDS011;39345;43.964;25.340;2023-06-26T06:45:27;10.60;;;4.75;;
43835;SDS011;39345;43.964;25.340;2023-06-26T06:47:55;9.05;;;4.93;;
43835;SDS011;39345;43.964;25.340;2023-06-26T06:50:23;11.93;;;5.25;;
43835;SDS011;39345;43.964;25.340;2023-06-26T06:52:50;7.10;;;5.15;;
43835;SDS011;39345;43.964;25.340;2023-06-26T06:55:18;7.57;;;5.28;;
43835;SDS011;39345;43.964;25.340;2023-06-26T06:57:47;8.80;;;5.07;;
43835;SDS011;39345;43.964;25.340;2023-06-26T07:00:15;9.68;;;5.15;;
43835;SDS011;39345;43.964;25.340;2023-06-26T07:02:44;8.60;;;5.70;;
43835;SDS011;39345;43.964;25.340;2023-06-26T07:05:12;7.22;;;5.05;;
43835;SDS011;39345;43.964;25.340;2023-06-26T07:07:40;9.02;;;4.78;;
43835;SDS011;39345;43.964;25.340;2023-06-26T07:10:10;7.35;;;4.93;;
43835;SDS011;39345;43.964;25.340;2023-06-26T07:12:38;10.30;;;5.45;;
43835;SDS011;39345;43.964;25.340;2023-06-26T07:15:07;8.05;;;5.22;;
43835;SDS011;39345;43.964;25.340;2023-06-26T07:17:34;9.57;;;5.82;;
43835;SDS011;39345;43.964;25.340;2023-06-26T07:20:04;8.95;;;5.22;;
43835;SDS011;39345;43.964;25.340;2023-06-26T07:22:42;9.32;;;5.05;;
43835;SDS011;39345;43.964;25.340;2023-06-26T07:25:11;10.48;;;5.22;;
43835;SDS011;39345;43.964;25.340;2023-06-26T07:27:39;8.73;;;5.00;;
43835;SDS011;39345;43.964;25.340;2023-06-26T07:30:07;9.40;;;5.35;;
43835;SDS011;39345;43.964;25.340;2023-06-26T07:32:36;10.25;;;4.82;;
43835;SDS011;39345;43.964;25.340;2023-06-26T07:35:04;8.35;;;5.05;;
43835;SDS011;39345;43.964;25.340;2023-06-26T07:37:31;8.48;;;5.30;;
43835;SDS011;39345;43.964;25.340;2023-06-26T07:39:59;8.52;;;4.97;;
43835;SDS011;39345;43.964;25.340;2023-06-26T07:42:28;7.75;;;5.55;;
43835;SDS011;39345;43.964;25.340;2023-06-26T07:44:55;12.05;;;5.68;;
43835;SDS011;39345;43.964;25.340;2023-06-26T07:47:23;10.60;;;5.20;;
43835;SDS011;39345;43.964;25.340;2023-06-26T07:49:50;9.40;;;6.13;;
43835;SDS011;39345;43.964;25.340;2023-06-26T07:52:18;10.88;;;5.80;;
43835;SDS011;39345;43.964;25.340;2023-06-26T07:54:46;10.25;;;5.40;;
43835;SDS011;39345;43.964;25.340;2023-06-26T07:57:14;10.27;;;5.95;;
43835;SDS011;39345;43.964;25.340;2023-06-26T07:59:42;13.57;;;6.72;;
43835;SDS011;39345;43.964;25.340;2023-06-26T08:02:09;9.85;;;6.45;;
43835;SDS011;39345;43.964;25.340;2023-06-26T08:04:38;12.85;;;6.47;;
43835;SDS011;39345;43.964;25.340;2023-06-26T08:07:05;14.43;;;6.05;;
43835;SDS011;39345;43.964;25.340;2023-06-26T08:09:39;12.70;;;6.18;;
43835;SDS011;39345;43.964;25.340;2023-06-26T08:12:08;9.23;;;6.55;;
43835;SDS011;39345;43.964;25.340;2023-06-26T08:14:38;19.67;;;7.47;;
43835;SDS011;39345;43.964;25.340;2023-06-26T08:17:06;10.48;;;6.55;;
43835;SDS011;39345;43.964;25.340;2023-06-26T08:19:33;13.98;;;6.95;;
43835;SDS011;39345;43.964;25.340;2023-06-26T08:22:01;9.27;;;5.70;;
43835;SDS011;39345;43.964;25.340;2023-06-26T08:24:28;8.75;;;6.10;;
43835;SDS011;39345;43.964;25.340;2023-06-26T08:26:56;11.68;;;6.50;;
43835;SDS011;39345;43.964;25.340;2023-06-26T08:29:25;9.65;;;6.80;;
43835;SDS011;39345;43.964;25.340;2023-06-26T08:31:53;9.20;;;5.82;;
43835;SDS011;39345;43.964;25.340;2023-06-26T08:34:21;9.77;;;5.25;;
43835;SDS011;39345;43.964;25.340;2023-06-26T08:36:51;11.20;;;5.20;;
43835;SDS011;39345;43.964;25.340;2023-06-26T08:39:29;10.82;;;5.80;;
43835;SDS011;39345;43.964;25.340;2023-06-26T08:41:56;9.38;;;5.57;;
43835;SDS011;39345;43.964;25.340;2023-06-26T08:44:24;8.05;;;4.63;;
43835;SDS011;39345;43.964;25.340;2023-06-26T08:46:51;10.00;;;4.53;;
43835;SDS011;39345;43.964;25.340;2023-06-26T08:49:28;8.75;;;4.43;;
43835;SDS011;39345;43.964;25.340;2023-06-26T08:51:57;9.68;;;4.63;;
43835;SDS011;39345;43.964;25.340;2023-06-26T08:54:27;8.98;;;4.93;;
43835;SDS011;39345;43.964;25.340;2023-06-26T08:57:07;10.95;;;4.82;;
43835;SDS011;39345;43.964;25.340;2023-06-26T08:59:35;7.95;;;5.20;;
43835;SDS011;39345;43.964;25.340;2023-06-26T09:02:02;14.63;;;5.82;;
43835;SDS011;39345;43.964;25.340;2023-06-26T09:04:30;8.43;;;5.85;;
43835;SDS011;39345;43.964;25.340;2023-06-26T09:06:57;11.43;;;6.50;;
43835;SDS011;39345;43.964;25.340;2023-06-26T09:09:25;11.40;;;5.93;;
43835;SDS011;39345;43.964;25.340;2023-06-26T09:11:52;13.52;;;7.65;;
43835;SDS011;39345;43.964;25.340;2023-06-26T09:14:21;21.25;;;9.82;;
43835;SDS011;39345;43.964;25.340;2023-06-26T09:16:49;11.32;;;7.05;;
43835;SDS011;39345;43.964;25.340;2023-06-26T09:19:17;12.27;;;7.32;;
43835;SDS011;39345;43.964;25.340;2023-06-26T09:21:45;12.20;;;8.27;;
43835;SDS011;39345;43.964;25.340;2023-06-26T09:27:05;14.13;;;8.93;;
43835;SDS011;39345;43.964;25.340;2023-06-26T09:29:33;14.13;;;9.70;;
43835;SDS011;39345;43.964;25.340;2023-06-26T09:32:00;19.17;;;9.77;;
43835;SDS011;39345;43.964;25.340;2023-06-26T09:34:31;14.73;;;9.23;;
43835;SDS011;39345;43.964;25.340;2023-06-26T09:36:59;12.48;;;7.88;;
43835;SDS011;39345;43.964;25.340;2023-06-26T09:39:30;13.90;;;8.43;;
43835;SDS011;39345;43.964;25.340;2023-06-26T09:41:58;11.35;;;7.82;;
43835;SDS011;39345;43.964;25.340;2023-06-26T09:44:26;13.52;;;9.93;;
43835;SDS011;39345;43.964;25.340;2023-06-26T09:46:54;15.52;;;9.25;;
43835;SDS011;39345;43.964;25.340;2023-06-26T09:49:24;15.20;;;9.02;;
43835;SDS011;39345;43.964;25.340;2023-06-26T09:51:52;15.82;;;9.98;;
43835;SDS011;39345;43.964;25.340;2023-06-26T09:54:21;16.30;;;10.63;;
43835;SDS011;39345;43.964;25.340;2023-06-26T09:56:49;14.10;;;10.10;;
43835;SDS011;39345;43.964;25.340;2023-06-26T09:59:16;14.68;;;10.25;;
43835;SDS011;39345;43.964;25.340;2023-06-26T10:01:45;12.57;;;8.98;;
43835;SDS011;39345;43.964;25.340;2023-06-26T10:04:13;12.38;;;8.80;;
43835;SDS011;39345;43.964;25.340;2023-06-26T10:06:50;14.55;;;11.45;;
43835;SDS011;39345;43.964;25.340;2023-06-26T10:09:19;13.95;;;10.60;;
43835;SDS011;39345;43.964;25.340;2023-06-26T10:11:57;20.20;;;11.02;;
43835;SDS011;39345;43.964;25.340;2023-06-26T10:14:34;15.30;;;10.23;;
43835;SDS011;39345;43.964;25.340;2023-06-26T10:17:09;15.50;;;10.63;;
43835;SDS011;39345;43.964;25.340;2023-06-26T10:19:37;16.70;;;10.32;;
43835;SDS011;39345;43.964;25.340;2023-06-26T10:22:05;14.02;;;10.07;;
43835;SDS011;39345;43.964;25.340;2023-06-26T10:24:33;18.33;;;11.30;;
43835;SDS011;39345;43.964;25.340;2023-06-26T10:27:03;17.45;;;11.48;;
43835;SDS011;39345;43.964;25.340;2023-06-26T10:29:33;15.68;;;11.18;;
43835;SDS011;39345;43.964;25.340;2023-06-26T10:32:01;14.70;;;11.15;;
43835;SDS011;39345;43.964;25.340;2023-06-26T10:34:31;19.35;;;12.10;;
43835;SDS011;39345;43.964;25.340;2023-06-26T10:36:59;15.48;;;11.13;;
43835;SDS011;39345;43.964;25.340;2023-06-26T10:40:04;16.15;;;12.23;;
43835;SDS011;39345;43.964;25.340;2023-06-26T10:42:34;17.85;;;12.07;;
43835;SDS011;39345;43.964;25.340;2023-06-26T10:45:14;18.63;;;13.38;;
43835;SDS011;39345;43.964;25.340;2023-06-26T10:47:54;20.73;;;14.40;;
43835;SDS011;39345;43.964;25.340;2023-06-26T10:50:28;16.77;;;12.73;;
43835;SDS011;39345;43.964;25.340;2023-06-26T10:55:35;15.57;;;12.13;;
43835;SDS011;39345;43.964;25.340;2023-06-26T10:58:03;16.88;;;11.40;;
43835;SDS011;39345;43.964;25.340;2023-06-26T11:00:30;12.60;;;9.10;;
43835;SDS011;39345;43.964;25.340;2023-06-26T11:02:59;15.45;;;9.32;;
43835;SDS011;39345;43.964;25.340;2023-06-26T11:05:36;10.73;;;8.05;;
43835;SDS011;39345;43.964;25.340;2023-06-26T11:08:07;10.20;;;8.50;;
43835;SDS011;39345;43.964;25.340;2023-06-26T11:10:51;11.10;;;8.90;;
43835;SDS011;39345;43.964;25.340;2023-06-26T11:13:20;12.18;;;10.50;;
43835;SDS011;39345;43.964;25.340;2023-06-26T11:15:50;11.50;;;8.65;;
43835;SDS011;39345;43.964;25.340;2023-06-26T11:18:18;9.73;;;8.00;;
43835;SDS011;39345;43.964;25.340;2023-06-26T11:20:46;11.35;;;7.68;;
43835;SDS011;39345;43.964;25.340;2023-06-26T11:23:13;9.55;;;7.32;;
43835;SDS011;39345;43.964;25.340;2023-06-26T11:25:49;8.93;;;6.40;;
43835;SDS011;39345;43.964;25.340;2023-06-26T11:28:16;6.95;;;5.30;;
43835;SDS011;39345;43.964;25.340;2023-06-26T11:30:44;7.68;;;5.80;;
43835;SDS011;39345;43.964;25.340;2023-06-26T11:33:12;6.10;;;5.15;;
43835;SDS011;39345;43.964;25.340;2023-06-26T11:35:39;11.10;;;6.05;;
43835;SDS011;39345;43.964;25.340;2023-06-26T11:38:06;6.10;;;4.70;;
43835;SDS011;39345;43.964;25.340;2023-06-26T11:40:35;6.60;;;4.47;;
43835;SDS011;39345;43.964;25.340;2023-06-26T11:43:03;8.10;;;4.57;;
43835;SDS011;39345;43.964;25.340;2023-06-26T11:45:31;6.10;;;3.75;;
43835;SDS011;39345;43.964;25.340;2023-06-26T11:48:00;4.07;;;3.00;;
43835;SDS011;39345;43.964;25.340;2023-06-26T11:50:28;4.03;;;3.30;;
43835;SDS011;39345;43.964;25.340;2023-06-26T11:52:58;5.55;;;3.00;;
43835;SDS011;39345;43.964;25.340;2023-06-26T11:55:39;4.45;;;3.50;;
43835;SDS011;39345;43.964;25.340;2023-06-26T11:58:07;6.05;;;4.05;;
43835;SDS011;39345;43.964;25.340;2023-06-26T12:00:35;5.70;;;4.20;;
43835;SDS011;39345;43.964;25.340;2023-06-26T12:03:02;6.30;;;5.10;;
43835;SDS011;39345;43.964;25.340;2023-06-26T12:05:30;9.35;;;6.00;;
43835;SDS011;39345;43.964;25.340;2023-06-26T12:07:57;11.63;;;6.88;;
43835;SDS011;39345;43.964;25.340;2023-06-26T12:10:27;10.73;;;7.65;;
43835;SDS011;39345;43.964;25.340;2023-06-26T12:12:55;10.88;;;8.00;;
43835;SDS011;39345;43.964;25.340;2023-06-26T12:15:25;10.95;;;7.95;;
43835;SDS011;39345;43.964;25.340;2023-06-26T12:17:53;10.82;;;7.50;;
43835;SDS011;39345;43.964;25.340;2023-06-26T12:20:21;8.65;;;6.40;;
43835;SDS011;39345;43.964;25.340;2023-06-26T12:22:49;7.05;;;6.13;;
43835;SDS011;39345;43.964;25.340;2023-06-26T12:25:23;9.73;;;6.07;;
43835;SDS011;39345;43.964;25.340;2023-06-26T12:27:50;8.23;;;5.90;;
43835;SDS011;39345;43.964;25.340;2023-06-26T12:30:18;9.75;;;6.45;;
43835;SDS011;39345;43.964;25.340;2023-06-26T12:32:45;9.00;;;6.43;;
43835;SDS011;39345;43.964;25.340;2023-06-26T12:35:13;11.82;;;7.03;;
43835;SDS011;39345;43.964;25.340;2023-06-26T12:37:43;7.40;;;5.78;;
43835;SDS011;39345;43.964;25.340;2023-06-26T12:40:16;7.88;;;5.30;;
43835;SDS011;39345;43.964;25.340;2023-06-26T12:42:44;8.10;;;5.55;;
43835;SDS011;39345;43.964;25.340;2023-06-26T12:45:13;7.78;;;5.15;;
43835;SDS011;39345;43.964;25.340;2023-06-26T12:48:11;7.07;;;4.75;;
43835;SDS011;39345;43.964;25.340;2023-06-26T12:50:43;8.27;;;6.05;;
43835;SDS011;39345;43.964;25.340;2023-06-26T12:53:11;6.15;;;4.60;;
43835;SDS011;39345;43.964;25.340;2023-06-26T12:55:41;6.70;;;5.25;;
43835;SDS011;39345;43.964;25.340;2023-06-26T12:58:09;7.15;;;4.68;;
43835;SDS011;39345;43.964;25.340;2023-06-26T13:00:36;7.60;;;4.90;;
43835;SDS011;39345;43.964;25.340;2023-06-26T13:03:04;8.95;;;4.93;;
43835;SDS011;39345;43.964;25.340;2023-06-26T13:05:35;6.50;;;3.70;;
43835;SDS011;39345;43.964;25.340;2023-06-26T13:08:02;8.35;;;4.25;;
43835;SDS011;39345;43.964;25.340;2023-06-26T13:10:30;8.73;;;4.45;;
43835;SDS011;39345;43.964;25.340;2023-06-26T13:12:57;6.15;;;4.07;;
43835;SDS011;39345;43.964;25.340;2023-06-26T13:15:25;7.72;;;4.13;;
43835;SDS011;39345;43.964;25.340;2023-06-26T13:17:53;6.07;;;4.50;;
43835;SDS011;39345;43.964;25.340;2023-06-26T13:20:21;8.77;;;4.78;;
43835;SDS011;39345;43.964;25.340;2023-06-26T13:22:48;8.55;;;3.83;;
43835;SDS011;39345;43.964;25.340;2023-06-26T13:25:16;8.13;;;4.30;;
43835;SDS011;39345;43.964;25.340;2023-06-26T13:27:43;8.88;;;4.00;;
43835;SDS011;39345;43.964;25.340;2023-06-26T13:30:11;6.05;;;3.80;;
43835;SDS011;39345;43.964;25.340;2023-06-26T13:32:40;5.18;;;3.75;;
43835;SDS011;39345;43.964;25.340;2023-06-26T13:35:07;6.70;;;4.10;;
43835;SDS011;39345;43.964;25.340;2023-06-26T13:37:36;5.97;;;3.63;;
43835;SDS011;39345;43.964;25.340;2023-06-26T13:40:03;7.15;;;3.97;;
43835;SDS011;39345;43.964;25.340;2023-06-26T13:42:36;5.47;;;3.90;;
43835;SDS011;39345;43.964;25.340;2023-06-26T13:45:06;5.47;;;3.75;;
43835;SDS011;39345;43.964;25.340;2023-06-26T13:47:52;6.60;;;4.05;;
43835;SDS011;39345;43.964;25.340;2023-06-26T13:50:20;6.70;;;4.40;;
43835;SDS011;39345;43.964;25.340;2023-06-26T13:52:48;5.68;;;4.07;;
43835;SDS011;39345;43.964;25.340;2023-06-26T13:55:16;6.78;;;3.75;;
43835;SDS011;39345;43.964;25.340;2023-06-26T13:57:44;7.97;;;4.03;;
43835;SDS011;39345;43.964;25.340;2023-06-26T14:00:12;7.18;;;3.92;;
43835;SDS011;39345;43.964;25.340;2023-06-26T14:02:42;7.55;;;4.20;;
43835;SDS011;39345;43.964;25.340;2023-06-26T14:05:13;5.25;;;4.00;;
43835;SDS011;39345;43.964;25.340;2023-06-26T14:07:41;6.70;;;4.10;;
43835;SDS011;39345;43.964;25.340;2023-06-26T14:10:10;6.05;;;3.88;;
43835;SDS011;39345;43.964;25.340;2023-06-26T14:12:40;7.10;;;3.78;;
43835;SDS011;39345;43.964;25.340;2023-06-26T14:15:08;6.35;;;3.90;;
43835;SDS011;39345;43.964;25.340;2023-06-26T14:17:35;6.65;;;4.00;;
43835;SDS011;39345;43.964;25.340;2023-06-26T14:20:07;6.65;;;4.13;;
43835;SDS011;39345;43.964;25.340;2023-06-26T14:22:39;8.50;;;4.00;;
43835;SDS011;39345;43.964;25.340;2023-06-26T14:25:09;4.85;;;3.97;;
43835;SDS011;39345;43.964;25.340;2023-06-26T14:27:39;7.05;;;4.50;;
43835;SDS011;39345;43.964;25.340;2023-06-26T14:30:19;4.93;;;4.22;;
43835;SDS011;39345;43.964;25.340;2023-06-26T14:32:46;5.65;;;4.10;;
43835;SDS011;39345;43.964;25.340;2023-06-26T14:35:17;5.85;;;3.95;;
43835;SDS011;39345;43.964;25.340;2023-06-26T14:37:44;5.93;;;3.92;;
43835;SDS011;39345;43.964;25.340;2023-06-26T14:40:14;5.65;;;4.63;;
43835;SDS011;39345;43.964;25.340;2023-06-26T14:42:45;7.93;;;4.10;;
43835;SDS011;39345;43.964;25.340;2023-06-26T14:45:13;7.30;;;4.20;;